createdAt,value
2023-03-18T00:00:06.084Z,11.00
2023-03-18T00:01:15.041Z,11.50
2023-03-18T00:06:24.638Z,12.00
2023-03-18T06:06:11.243Z,8.50
2023-03-18T06:17:53.447Z,9.00
2023-03-18T15:26:38.443Z,9.75
2023-03-18T15:27:53.993Z,10.00
2023-03-18T15:29:00.763Z,10.00
2023-03-18T15:30:07.624Z,10.00
2023-03-18T15:36:43.193Z,11.50
2023-03-18T15:46:06.152Z,17.25
2023-03-18T15:47:13.475Z,17.75
2023-03-18T15:48:25.781Z,9.50
2023-03-18T15:49:35.064Z,15.50
2023-03-18T15:50:39.238Z,18.00
2023-03-18T15:51:50.163Z,19.00
2023-03-18T15:52:56.629Z,16.00
2023-03-18T15:54:01.052Z,15.00
2023-03-18T15:55:18.991Z,18.25
2023-03-18T15:59:08.354Z,12.75
2023-03-18T16:00:13.824Z,9.50
2023-03-18T16:01:18.105Z,9.00
2023-03-18T16:02:27.440Z,13.00
2023-03-18T16:03:33.258Z,14.75
2023-03-18T16:04:36.845Z,22.00
2023-03-18T16:05:41.396Z,25.25
2023-03-18T16:06:50.175Z,17.50
2023-03-18T16:07:53.573Z,22.75
2023-03-18T16:08:57.299Z,17.75
2023-03-18T16:10:01.779Z,11.00
2023-03-18T16:11:07.167Z,12.00
2023-03-18T16:12:13.766Z,12.00
2023-03-18T16:13:25.746Z,10.50
2023-03-18T16:14:35.814Z,11.00
2023-03-18T16:15:40.632Z,9.00
2023-03-18T16:16:47.410Z,9.50
2023-03-18T16:18:03.312Z,11.00
2023-03-18T16:19:09.636Z,11.75
2023-03-18T16:20:15.157Z,12.75
2023-03-18T16:21:18.648Z,17.25
2023-03-18T16:22:22.750Z,13.50
2023-03-18T16:23:27.130Z,10.00
2023-03-18T16:26:25.947Z,11.50
2023-03-18T16:27:29.984Z,11.00
2023-03-18T16:28:34.671Z,10.25
2023-03-18T16:29:37.906Z,9.50
2023-03-18T16:30:41.549Z,11.25
2023-03-18T16:31:45.611Z,10.50
2023-03-18T16:32:48.960Z,9.25
2023-03-18T16:33:54.395Z,9.50
2023-03-18T16:34:58.191Z,10.50
2023-03-18T16:36:01.906Z,13.50
2023-03-18T16:37:06.485Z,19.00
2023-03-18T16:38:10.165Z,19.75
2023-03-18T16:39:16.941Z,19.50
2023-03-18T16:40:20.023Z,21.75
2023-03-18T16:41:23.722Z,24.25
2023-03-18T16:42:27.438Z,23.00
2023-03-18T16:43:31.415Z,24.25
2023-03-18T16:44:42.084Z,27.50
2023-03-18T16:45:47.964Z,16.75
2023-03-18T16:46:51.184Z,10.75
2023-03-18T16:47:55.402Z,9.50
2023-03-18T16:48:58.686Z,10.00
2023-03-18T16:50:02.274Z,12.25
2023-03-18T16:51:06.468Z,17.00
2023-03-18T16:52:09.665Z,23.50
2023-03-18T16:53:13.446Z,17.00
2023-03-18T16:54:22.440Z,11.75
2023-03-18T16:55:26.058Z,13.25
2023-03-18T16:56:29.591Z,15.50
2023-03-18T16:57:33.346Z,9.00
2023-03-18T16:58:36.429Z,15.75
2023-03-18T16:59:40.432Z,22.00
2023-03-18T17:00:44.036Z,14.50
2023-03-18T17:01:47.653Z,13.00
2023-03-18T17:02:51.625Z,12.50
2023-03-18T17:03:56.610Z,14.25
2023-03-18T17:05:00.139Z,15.75
2023-03-18T17:06:03.515Z,10.75
2023-03-18T17:07:07.638Z,10.00
2023-03-18T17:08:11.002Z,10.00
2023-03-18T17:09:14.699Z,11.25
2023-03-18T17:10:18.296Z,11.25
2023-03-18T17:12:49.431Z,11.50
2023-03-18T17:13:59.274Z,11.75
2023-03-18T17:15:04.321Z,12.25
2023-03-18T17:16:08.880Z,12.50
2023-03-18T17:17:15.524Z,12.25
2023-03-18T17:18:20.423Z,12.00
2023-03-18T17:19:26.714Z,12.00
2023-03-18T17:20:37.104Z,12.50
2023-03-18T17:23:16.188Z,11.25
2023-03-18T17:24:19.497Z,11.50
2023-03-18T17:25:26.495Z,12.50
2023-03-18T17:26:36.237Z,12.25
2023-03-18T17:27:39.730Z,11.00
2023-03-18T17:28:46.435Z,11.00
2023-03-18T17:29:50.317Z,11.00
2023-03-18T17:31:05.226Z,9.50
2023-03-18T17:32:11.917Z,10.50
2023-03-18T17:33:17.602Z,11.50
2023-03-18T17:34:21.125Z,9.25
2023-03-18T17:35:41.995Z,9.00
2023-03-18T17:38:10.155Z,10.00
2023-03-18T17:41:55.627Z,11.00
2023-03-18T17:42:59.287Z,9.00
2023-03-18T17:44:06.812Z,10.25
2023-03-18T17:45:21.665Z,11.50
2023-03-18T17:46:29.353Z,11.50
2023-03-18T17:47:33.489Z,11.75
2023-03-18T17:48:41.263Z,10.75
2023-03-18T17:51:19.628Z,11.00
2023-03-18T17:52:23.713Z,10.50
2023-03-18T17:53:34.759Z,11.00
2023-03-18T17:54:41.177Z,11.25
2023-03-18T17:55:48.031Z,13.50
2023-03-18T17:56:51.514Z,12.50
2023-03-18T17:57:54.997Z,10.50
2023-03-18T17:58:58.882Z,10.00
2023-03-18T18:00:14.466Z,10.50
2023-03-18T18:02:52.685Z,10.75
2023-03-18T18:04:04.154Z,11.50
2023-03-18T18:05:08.211Z,9.25
2023-03-18T18:06:13.343Z,9.75
2023-03-18T18:07:16.864Z,9.00
2023-03-18T18:08:20.763Z,10.00
2023-03-18T18:09:24.463Z,10.25
2023-03-18T18:10:28.976Z,9.50
2023-03-18T18:11:37.170Z,8.25
2023-03-18T18:12:41.127Z,8.50
2023-03-18T18:13:47.115Z,8.00
2023-03-18T18:14:50.423Z,7.75
2023-03-18T18:15:58.241Z,9.25
2023-03-18T18:17:07.796Z,8.50
2023-03-18T18:18:20.225Z,8.00
2023-03-18T18:19:23.703Z,8.25
2023-03-18T18:20:27.367Z,8.50
2023-03-18T18:21:31.515Z,8.25
2023-03-18T18:22:38.882Z,8.00
2023-03-18T18:23:43.210Z,7.25
2023-03-18T18:24:49.652Z,7.00
2023-03-18T18:25:52.936Z,6.50
2023-03-18T18:26:57.151Z,7.50
2023-03-18T18:28:02.078Z,8.00
2023-03-18T18:29:09.352Z,7.00
2023-03-18T18:31:40.514Z,9.50
2023-03-18T18:32:46.951Z,8.00
2023-03-18T18:33:50.511Z,8.00
2023-03-18T18:36:21.762Z,9.00
2023-03-18T18:37:25.289Z,7.50
2023-03-18T18:38:34.233Z,6.75
2023-03-18T18:39:39.730Z,8.00
2023-03-18T18:40:55.375Z,9.00
2023-03-18T18:43:34.144Z,15.25
2023-03-18T18:45:58.450Z,23.00
2023-03-18T18:47:02.144Z,18.00
2023-03-18T18:48:07.180Z,8.50
2023-03-18T18:50:37.254Z,7.00
2023-03-18T18:51:41.048Z,7.50
2023-03-18T18:52:44.740Z,6.50
2023-03-18T18:53:48.650Z,7.00
2023-03-18T18:54:52.634Z,9.25
2023-03-18T18:55:55.945Z,9.75
2023-03-18T18:57:02.696Z,10.50
2023-03-18T18:58:09.766Z,9.25
2023-03-18T18:59:13.205Z,8.00
2023-03-18T19:00:17.277Z,8.00
2023-03-18T19:01:24.229Z,7.75
2023-03-18T19:02:27.601Z,8.50
2023-03-18T19:03:33.093Z,7.50
2023-03-18T19:04:38.688Z,8.00
2023-03-18T19:06:59.315Z,9.00
2023-03-18T19:08:03.843Z,10.00
2023-03-18T19:09:08.018Z,10.75
2023-03-18T19:10:11.403Z,10.75
2023-03-18T19:11:17.717Z,8.00
2023-03-18T19:13:46.552Z,11.00
2023-03-18T19:14:53.582Z,11.00
2023-03-18T19:15:57.276Z,11.00
2023-03-18T19:17:07.488Z,11.00
2023-03-18T19:18:13.398Z,10.75
2023-03-18T19:19:21.967Z,9.50
2023-03-18T19:20:29.898Z,12.00
2023-03-18T19:21:33.319Z,11.00
2023-03-18T19:22:37.389Z,9.75
2023-03-18T19:23:47.538Z,9.00
2023-03-18T19:45:17.609Z,9.25
2023-03-18T19:54:35.949Z,10.50
2023-03-18T21:06:35.276Z,9.50
2023-03-18T21:07:41.665Z,9.50
2023-03-18T21:08:54.042Z,7.25
2023-03-18T21:10:03.878Z,7.75
2023-03-18T21:11:13.998Z,8.00
2023-03-18T21:13:39.730Z,8.00
2023-03-18T21:16:10.045Z,9.00
2023-03-18T21:30:52.365Z,15.75
2023-03-18T21:38:45.771Z,13.75
2023-03-18T21:50:19.300Z,14.00
